Airfield :







YOU CAN JOIN US ON...

 
LOGIN :

Register | Disclaimer

   EN    FR    IT 

 









Legend :    VFR   Marginal VFR   IFR   Intensive IFR   Very Intensive IFR
Visi :
Ceiling :
>= 8 km
>= 3000ft
5 to 8 km
1000 to 3000 ft
1500m to 5 km
500 to 1000 ft
800 to 1500m
200 to 500 ft
< 800m
< 200 ft
Symbols :   Thunderstorms  Fog  Heavy snow  Heavy precipitations  Wind > 20 kt







- Airport Elevation : 586 ft
- IATA code : YRJ


CYRJ - Roberval

CURRENT METAR :
  • 251300Z 09007KT 40SM SCT046 BKN075 BKN220 02/M01 A2993 RMK SC3AC3CI1 SLP146

EXPIRED METARs :
  • 251200Z 11003KT 080V140 25SM SCT006 BKN076 01/M01 A2994 RMK SF3AC4 SLP148
  • 251127Z 11004KT 25SM FEW005 BKN078 00/M00 A2994 RMK SF2AC5 SLP148
  • 251100Z VRB02KT 20SM FEW002 BKN079 M00/M00 A2993 RMK SF1AC6 SLP146
  • 251041Z 00000KT 8SM FEW002 BKN079 M00/M00 A2993 RMK SF2AC5 BCFG S-SW SLP146

TAF TAF CYRJ
Valid from the 25 at 12:00 until the 26 at 00:00 UTC


251138Z 2512/2524 VRB03KT P6SM FEW030 BKN080
FM251400 06005KT P6SM BKN030
TEMPO 2514/2522 BKN020
BECMG 2516/2518 VRB03KT
FM252200 21007KT P6SM -RA OVC030 RMK NXT FCST BY 251400Z
CZUL FIR / North America



MET'MAP, your aeronautical weather chart ! - Copyright ORBIFLY December 2007 - Disclaimer

ORBIFLY MET'MAP TEAM :

Programming & Development : Alexandra Zaïnal
Concept & Development : Baudouin d'Aumeries
Co-Development & Prog : Marc-Olivier Méhu
Technical & hardware support : Manuel Goepfert

Contact : metmap@orbifly.com




SOURCES & CREDITS :

   NOAA